sensor_id;sensor_type;location;lat;lon;timestamp;temperature;humidity
2757;DHT22;1386;50.862;6.494;2022-09-09T00:01:49;17.00;99.90
2757;DHT22;1386;50.862;6.494;2022-09-09T00:04:25;16.90;99.90
2757;DHT22;1386;50.862;6.494;2022-09-09T00:06:59;16.90;99.90
2757;DHT22;1386;50.862;6.494;2022-09-09T00:09:32;16.90;99.90
2757;DHT22;1386;50.862;6.494;2022-09-09T00:12:10;16.80;99.90
2757;DHT22;1386;50.862;6.494;2022-09-09T00:14:43;16.80;99.90
2757;DHT22;1386;50.862;6.494;2022-09-09T00:17:18;16.80;99.90
2757;DHT22;1386;50.862;6.494;2022-09-09T00:19:55;16.80;99.90
2757;DHT22;1386;50.862;6.494;2022-09-09T00:22:26;16.70;99.90
2757;DHT22;1386;50.862;6.494;2022-09-09T00:24:55;16.80;99.90
2757;DHT22;1386;50.862;6.494;2022-09-09T00:27:28;16.70;99.90
2757;DHT22;1386;50.862;6.494;2022-09-09T00:30:01;16.70;99.90
2757;DHT22;1386;50.862;6.494;2022-09-09T00:32:30;16.70;99.90
2757;DHT22;1386;50.862;6.494;2022-09-09T00:35:02;16.70;99.90
2757;DHT22;1386;50.862;6.494;2022-09-09T00:37:31;16.70;99.90
2757;DHT22;1386;50.862;6.494;2022-09-09T00:40:05;16.70;99.90
2757;DHT22;1386;50.862;6.494;2022-09-09T00:42:41;16.60;99.90
2757;DHT22;1386;50.862;6.494;2022-09-09T00:45:28;16.60;99.90
2757;DHT22;1386;50.862;6.494;2022-09-09T00:48:06;16.60;99.90
2757;DHT22;1386;50.862;6.494;2022-09-09T00:50:42;16.60;99.90
2757;DHT22;1386;50.862;6.494;2022-09-09T00:53:20;16.50;99.90
2757;DHT22;1386;50.862;6.494;2022-09-09T00:55:54;16.50;99.90
2757;DHT22;1386;50.862;6.494;2022-09-09T00:58:24;16.50;99.90
2757;DHT22;1386;50.862;6.494;2022-09-09T01:00:57;16.50;99.90
2757;DHT22;1386;50.862;6.494;2022-09-09T01:03:34;16.50;99.90
2757;DHT22;1386;50.862;6.494;2022-09-09T01:06:11;16.50;99.90
2757;DHT22;1386;50.862;6.494;2022-09-09T01:09:04;16.50;99.90
2757;DHT22;1386;50.862;6.494;2022-09-09T01:11:38;16.50;99.90
2757;DHT22;1386;50.862;6.494;2022-09-09T01:14:14;16.50;99.90
2757;DHT22;1386;50.862;6.494;2022-09-09T01:16:45;16.40;99.90
2757;DHT22;1386;50.862;6.494;2022-09-09T01:19:19;16.40;99.90
2757;DHT22;1386;50.862;6.494;2022-09-09T01:21:54;16.40;99.90
2757;DHT22;1386;50.862;6.494;2022-09-09T01:24:27;16.30;99.90
2757;DHT22;1386;50.862;6.494;2022-09-09T01:27:01;16.30;99.90
2757;DHT22;1386;50.862;6.494;2022-09-09T01:29:29;16.30;99.90
2757;DHT22;1386;50.862;6.494;2022-09-09T01:31:57;16.30;99.90
2757;DHT22;1386;50.862;6.494;2022-09-09T01:34:27;16.30;99.90
2757;DHT22;1386;50.862;6.494;2022-09-09T01:36:59;16.30;99.90
2757;DHT22;1386;50.862;6.494;2022-09-09T01:39:30;16.30;99.90
2757;DHT22;1386;50.862;6.494;2022-09-09T01:41:57;16.30;99.90
2757;DHT22;1386;50.862;6.494;2022-09-09T01:44:26;16.30;99.90
2757;DHT22;1386;50.862;6.494;2022-09-09T01:46:54;16.30;99.90
2757;DHT22;1386;50.862;6.494;2022-09-09T01:49:21;16.30;99.90
2757;DHT22;1386;50.862;6.494;2022-09-09T01:51:51;16.30;99.90
2757;DHT22;1386;50.862;6.494;2022-09-09T01:54:19;16.30;99.90
2757;DHT22;1386;50.862;6.494;2022-09-09T01:56:54;16.30;99.90
2757;DHT22;1386;50.862;6.494;2022-09-09T01:59:47;16.30;99.90
2757;DHT22;1386;50.862;6.494;2022-09-09T02:02:18;16.30;99.90
2757;DHT22;1386;50.862;6.494;2022-09-09T02:04:47;16.30;99.90
2757;DHT22;1386;50.862;6.494;2022-09-09T02:07:34;16.30;99.90
2757;DHT22;1386;50.862;6.494;2022-09-09T02:10:10;16.20;99.90
2757;DHT22;1386;50.862;6.494;2022-09-09T02:12:40;16.20;99.90
2757;DHT22;1386;50.862;6.494;2022-09-09T02:15:16;16.20;99.90
2757;DHT22;1386;50.862;6.494;2022-09-09T02:17:46;16.20;99.90
2757;DHT22;1386;50.862;6.494;2022-09-09T02:20:16;16.20;99.90
2757;DHT22;1386;50.862;6.494;2022-09-09T02:22:46;16.20;99.90
2757;DHT22;1386;50.862;6.494;2022-09-09T02:25:18;16.20;99.90
2757;DHT22;1386;50.862;6.494;2022-09-09T02:27:46;16.20;99.90
2757;DHT22;1386;50.862;6.494;2022-09-09T02:30:16;16.20;99.90
2757;DHT22;1386;50.862;6.494;2022-09-09T02:32:43;16.30;99.90
2757;DHT22;1386;50.862;6.494;2022-09-09T02:35:13;16.30;99.90
2757;DHT22;1386;50.862;6.494;2022-09-09T02:37:42;16.30;99.90
2757;DHT22;1386;50.862;6.494;2022-09-09T02:40:12;16.30;99.90
2757;DHT22;1386;50.862;6.494;2022-09-09T02:42:41;16.30;99.90
2757;DHT22;1386;50.862;6.494;2022-09-09T02:45:10;16.30;99.90
2757;DHT22;1386;50.862;6.494;2022-09-09T02:47:42;16.30;99.90
2757;DHT22;1386;50.862;6.494;2022-09-09T02:50:13;16.30;99.90
2757;DHT22;1386;50.862;6.494;2022-09-09T02:52:50;16.30;99.90
2757;DHT22;1386;50.862;6.494;2022-09-09T02:55:27;16.30;99.90
2757;DHT22;1386;50.862;6.494;2022-09-09T02:57:57;16.30;99.90
2757;DHT22;1386;50.862;6.494;2022-09-09T03:00:25;16.30;99.90
2757;DHT22;1386;50.862;6.494;2022-09-09T03:02:54;16.30;99.90
2757;DHT22;1386;50.862;6.494;2022-09-09T03:05:21;16.30;99.90
2757;DHT22;1386;50.862;6.494;2022-09-09T03:07:48;16.30;99.90
2757;DHT22;1386;50.862;6.494;2022-09-09T03:10:16;16.30;99.90
2757;DHT22;1386;50.862;6.494;2022-09-09T03:12:43;16.30;99.90
2757;DHT22;1386;50.862;6.494;2022-09-09T03:15:10;16.30;99.90
2757;DHT22;1386;50.862;6.494;2022-09-09T03:17:37;16.40;99.90
2757;DHT22;1386;50.862;6.494;2022-09-09T03:20:06;16.40;99.90
2757;DHT22;1386;50.862;6.494;2022-09-09T03:22:32;16.40;99.90
2757;DHT22;1386;50.862;6.494;2022-09-09T03:25:00;16.40;99.90
2757;DHT22;1386;50.862;6.494;2022-09-09T03:27:27;16.50;99.90
2757;DHT22;1386;50.862;6.494;2022-09-09T03:29:54;16.50;99.90
2757;DHT22;1386;50.862;6.494;2022-09-09T03:32:21;16.50;99.90
2757;DHT22;1386;50.862;6.494;2022-09-09T03:34:51;16.50;99.90
2757;DHT22;1386;50.862;6.494;2022-09-09T03:37:19;16.50;99.90
2757;DHT22;1386;50.862;6.494;2022-09-09T03:39:46;16.50;99.90
2757;DHT22;1386;50.862;6.494;2022-09-09T03:42:14;16.50;99.90
2757;DHT22;1386;50.862;6.494;2022-09-09T03:44:44;16.50;99.90
2757;DHT22;1386;50.862;6.494;2022-09-09T03:47:16;16.50;99.90
2757;DHT22;1386;50.862;6.494;2022-09-09T03:49:43;16.60;99.90
2757;DHT22;1386;50.862;6.494;2022-09-09T03:52:10;16.60;99.90
2757;DHT22;1386;50.862;6.494;2022-09-09T03:54:39;16.60;99.90
2757;DHT22;1386;50.862;6.494;2022-09-09T03:57:08;16.60;99.90
2757;DHT22;1386;50.862;6.494;2022-09-09T03:59:35;16.60;99.90
2757;DHT22;1386;50.862;6.494;2022-09-09T04:02:03;16.60;99.90
2757;DHT22;1386;50.862;6.494;2022-09-09T04:04:30;16.60;99.90
2757;DHT22;1386;50.862;6.494;2022-09-09T04:06:57;16.60;99.90
2757;DHT22;1386;50.862;6.494;2022-09-09T04:09:24;16.60;99.90
2757;DHT22;1386;50.862;6.494;2022-09-09T04:11:52;16.60;99.90
2757;DHT22;1386;50.862;6.494;2022-09-09T04:14:20;16.60;99.90
2757;DHT22;1386;50.862;6.494;2022-09-09T04:16:47;16.60;99.90
2757;DHT22;1386;50.862;6.494;2022-09-09T04:19:14;16.60;99.90
2757;DHT22;1386;50.862;6.494;2022-09-09T04:21:41;16.70;99.90
2757;DHT22;1386;50.862;6.494;2022-09-09T04:24:08;16.70;99.90
2757;DHT22;1386;50.862;6.494;2022-09-09T04:26:36;16.70;99.90
2757;DHT22;1386;50.862;6.494;2022-09-09T04:29:04;16.70;99.90
2757;DHT22;1386;50.862;6.494;2022-09-09T04:31:33;16.70;99.90
2757;DHT22;1386;50.862;6.494;2022-09-09T04:34:01;16.70;99.90
2757;DHT22;1386;50.862;6.494;2022-09-09T04:36:31;16.70;99.90
2757;DHT22;1386;50.862;6.494;2022-09-09T04:38:58;16.70;99.90
2757;DHT22;1386;50.862;6.494;2022-09-09T04:41:25;16.70;99.90
2757;DHT22;1386;50.862;6.494;2022-09-09T04:43:52;16.70;99.90
2757;DHT22;1386;50.862;6.494;2022-09-09T04:46:20;16.70;99.90
2757;DHT22;1386;50.862;6.494;2022-09-09T04:48:48;16.70;99.90
2757;DHT22;1386;50.862;6.494;2022-09-09T04:51:15;16.70;99.90
2757;DHT22;1386;50.862;6.494;2022-09-09T04:53:42;16.80;99.90
2757;DHT22;1386;50.862;6.494;2022-09-09T04:56:11;16.80;99.90
2757;DHT22;1386;50.862;6.494;2022-09-09T04:58:39;16.80;99.90
2757;DHT22;1386;50.862;6.494;2022-09-09T05:01:08;16.80;99.90
2757;DHT22;1386;50.862;6.494;2022-09-09T05:03:37;16.80;99.90
2757;DHT22;1386;50.862;6.494;2022-09-09T05:06:05;16.80;99.90
2757;DHT22;1386;50.862;6.494;2022-09-09T05:08:34;16.80;99.90
2757;DHT22;1386;50.862;6.494;2022-09-09T05:11:00;16.70;99.90
2757;DHT22;1386;50.862;6.494;2022-09-09T05:13:28;16.80;99.90
2757;DHT22;1386;50.862;6.494;2022-09-09T05:15:56;16.80;99.90
2757;DHT22;1386;50.862;6.494;2022-09-09T05:18:23;16.80;99.90
2757;DHT22;1386;50.862;6.494;2022-09-09T05:20:51;16.80;99.90
2757;DHT22;1386;50.862;6.494;2022-09-09T05:23:18;16.80;99.90
2757;DHT22;1386;50.862;6.494;2022-09-09T05:25:55;16.80;99.90
2757;DHT22;1386;50.862;6.494;2022-09-09T05:28:22;16.80;99.90
2757;DHT22;1386;50.862;6.494;2022-09-09T05:30:55;16.80;99.90
2757;DHT22;1386;50.862;6.494;2022-09-09T05:33:23;16.80;99.90
2757;DHT22;1386;50.862;6.494;2022-09-09T05:35:57;16.80;99.90
2757;DHT22;1386;50.862;6.494;2022-09-09T05:38:23;16.80;99.90
2757;DHT22;1386;50.862;6.494;2022-09-09T05:40:51;16.80;99.90
2757;DHT22;1386;50.862;6.494;2022-09-09T05:43:18;16.80;99.90
2757;DHT22;1386;50.862;6.494;2022-09-09T05:45:45;16.80;99.90
2757;DHT22;1386;50.862;6.494;2022-09-09T05:48:13;16.80;99.90
2757;DHT22;1386;50.862;6.494;2022-09-09T05:50:41;16.80;99.90
2757;DHT22;1386;50.862;6.494;2022-09-09T05:53:09;16.80;99.90
2757;DHT22;1386;50.862;6.494;2022-09-09T05:55:36;16.80;99.90
2757;DHT22;1386;50.862;6.494;2022-09-09T05:58:03;16.80;99.90
2757;DHT22;1386;50.862;6.494;2022-09-09T06:00:30;16.80;99.90
2757;DHT22;1386;50.862;6.494;2022-09-09T06:02:57;16.80;99.90
2757;DHT22;1386;50.862;6.494;2022-09-09T06:05:24;16.80;99.90
2757;DHT22;1386;50.862;6.494;2022-09-09T06:07:53;16.80;99.90
2757;DHT22;1386;50.862;6.494;2022-09-09T06:10:21;16.80;99.90
2757;DHT22;1386;50.862;6.494;2022-09-09T06:12:48;16.80;99.90
2757;DHT22;1386;50.862;6.494;2022-09-09T06:15:15;16.90;99.90
2757;DHT22;1386;50.862;6.494;2022-09-09T06:17:42;16.90;99.90
2757;DHT22;1386;50.862;6.494;2022-09-09T06:20:10;16.90;99.90
2757;DHT22;1386;50.862;6.494;2022-09-09T06:22:39;17.00;99.90
2757;DHT22;1386;50.862;6.494;2022-09-09T06:25:08;17.00;99.90
2757;DHT22;1386;50.862;6.494;2022-09-09T06:27:36;17.10;99.90
2757;DHT22;1386;50.862;6.494;2022-09-09T06:30:03;17.10;99.90
2757;DHT22;1386;50.862;6.494;2022-09-09T06:32:30;17.20;99.90
2757;DHT22;1386;50.862;6.494;2022-09-09T06:35:00;17.20;99.90
2757;DHT22;1386;50.862;6.494;2022-09-09T06:37:28;17.20;99.90
2757;DHT22;1386;50.862;6.494;2022-09-09T06:39:54;17.30;99.90
2757;DHT22;1386;50.862;6.494;2022-09-09T06:42:21;17.20;99.90
2757;DHT22;1386;50.862;6.494;2022-09-09T06:44:49;17.30;99.90
2757;DHT22;1386;50.862;6.494;2022-09-09T06:47:17;17.30;99.90
2757;DHT22;1386;50.862;6.494;2022-09-09T06:49:44;17.30;99.90
2757;DHT22;1386;50.862;6.494;2022-09-09T06:52:11;17.30;99.90
2757;DHT22;1386;50.862;6.494;2022-09-09T06:54:38;17.40;99.90
2757;DHT22;1386;50.862;6.494;2022-09-09T06:57:05;17.40;99.90
2757;DHT22;1386;50.862;6.494;2022-09-09T06:59:33;17.50;99.90
2757;DHT22;1386;50.862;6.494;2022-09-09T07:02:01;17.60;99.90
2757;DHT22;1386;50.862;6.494;2022-09-09T07:04:28;17.70;99.90
2757;DHT22;1386;50.862;6.494;2022-09-09T07:06:55;17.70;99.90
2757;DHT22;1386;50.862;6.494;2022-09-09T07:09:22;17.80;99.90
2757;DHT22;1386;50.862;6.494;2022-09-09T07:11:50;17.80;99.90
2757;DHT22;1386;50.862;6.494;2022-09-09T07:14:18;17.90;99.90
2757;DHT22;1386;50.862;6.494;2022-09-09T07:16:46;18.00;99.90
2757;DHT22;1386;50.862;6.494;2022-09-09T07:19:14;18.00;99.90
2757;DHT22;1386;50.862;6.494;2022-09-09T07:21:49;18.00;99.90
2757;DHT22;1386;50.862;6.494;2022-09-09T07:24:16;18.10;99.90
2757;DHT22;1386;50.862;6.494;2022-09-09T07:26:43;18.20;99.90
2757;DHT22;1386;50.862;6.494;2022-09-09T07:29:11;18.20;99.90
2757;DHT22;1386;50.862;6.494;2022-09-09T07:31:39;18.20;99.90
2757;DHT22;1386;50.862;6.494;2022-09-09T07:34:06;18.30;99.90
2757;DHT22;1386;50.862;6.494;2022-09-09T07:36:36;18.30;99.90
2757;DHT22;1386;50.862;6.494;2022-09-09T07:39:05;18.30;99.90
2757;DHT22;1386;50.862;6.494;2022-09-09T07:41:33;18.40;99.90
2757;DHT22;1386;50.862;6.494;2022-09-09T07:44:04;18.40;99.90
2757;DHT22;1386;50.862;6.494;2022-09-09T07:46:32;18.40;99.90
2757;DHT22;1386;50.862;6.494;2022-09-09T07:48:59;18.40;99.90
2757;DHT22;1386;50.862;6.494;2022-09-09T07:51:28;18.40;99.90
2757;DHT22;1386;50.862;6.494;2022-09-09T07:53:58;18.40;99.90
2757;DHT22;1386;50.862;6.494;2022-09-09T07:56:27;19.10;99.90
2757;DHT22;1386;50.862;6.494;2022-09-09T07:58:55;18.50;99.90
2757;DHT22;1386;50.862;6.494;2022-09-09T08:01:24;18.50;99.90
2757;DHT22;1386;50.862;6.494;2022-09-09T08:03:56;18.60;99.90
2757;DHT22;1386;50.862;6.494;2022-09-09T08:06:25;18.70;99.90
2757;DHT22;1386;50.862;6.494;2022-09-09T08:08:53;18.80;99.90
2757;DHT22;1386;50.862;6.494;2022-09-09T08:11:25;18.80;99.90
2757;DHT22;1386;50.862;6.494;2022-09-09T08:13:53;18.90;99.90
2757;DHT22;1386;50.862;6.494;2022-09-09T08:16:23;18.80;99.90
2757;DHT22;1386;50.862;6.494;2022-09-09T08:19:04;18.90;99.90
2757;DHT22;1386;50.862;6.494;2022-09-09T08:21:34;18.90;99.90
2757;DHT22;1386;50.862;6.494;2022-09-09T08:24:03;18.90;99.90
2757;DHT22;1386;50.862;6.494;2022-09-09T08:26:34;18.90;99.90
2757;DHT22;1386;50.862;6.494;2022-09-09T08:29:03;18.90;99.90
2757;DHT22;1386;50.862;6.494;2022-09-09T08:31:32;19.00;99.90
2757;DHT22;1386;50.862;6.494;2022-09-09T08:34:00;19.10;99.90
2757;DHT22;1386;50.862;6.494;2022-09-09T08:36:30;19.10;99.90
2757;DHT22;1386;50.862;6.494;2022-09-09T08:38:59;19.10;99.90
2757;DHT22;1386;50.862;6.494;2022-09-09T08:41:43;19.10;99.90
2757;DHT22;1386;50.862;6.494;2022-09-09T08:44:22;19.10;99.90
2757;DHT22;1386;50.862;6.494;2022-09-09T08:46:55;19.10;99.90
2757;DHT22;1386;50.862;6.494;2022-09-09T08:49:44;19.20;99.90
2757;DHT22;1386;50.862;6.494;2022-09-09T08:52:19;19.30;99.90
2757;DHT22;1386;50.862;6.494;2022-09-09T09:12:48;19.50;99.90
2757;DHT22;1386;50.862;6.494;2022-09-09T09:15:19;19.50;99.90
2757;DHT22;1386;50.862;6.494;2022-09-09T09:17:47;19.60;99.90
2757;DHT22;1386;50.862;6.494;2022-09-09T09:20:18;19.90;99.90
2757;DHT22;1386;50.862;6.494;2022-09-09T09:22:49;20.10;99.90
2757;DHT22;1386;50.862;6.494;2022-09-09T09:25:18;20.10;99.90
2757;DHT22;1386;50.862;6.494;2022-09-09T09:27:53;20.40;99.90
2757;DHT22;1386;50.862;6.494;2022-09-09T09:30:26;20.50;99.90
2757;DHT22;1386;50.862;6.494;2022-09-09T09:32:55;20.50;99.90
2757;DHT22;1386;50.862;6.494;2022-09-09T09:35:23;20.50;99.90
2757;DHT22;1386;50.862;6.494;2022-09-09T09:37:50;20.80;99.90
2757;DHT22;1386;50.862;6.494;2022-09-09T09:40:19;21.10;99.90
2757;DHT22;1386;50.862;6.494;2022-09-09T09:42:52;21.10;99.90
2757;DHT22;1386;50.862;6.494;2022-09-09T09:45:28;21.40;99.90
2757;DHT22;1386;50.862;6.494;2022-09-09T09:48:01;21.40;99.90
2757;DHT22;1386;50.862;6.494;2022-09-09T09:50:30;21.30;99.90
2757;DHT22;1386;50.862;6.494;2022-09-09T09:52:59;21.20;99.90
2757;DHT22;1386;50.862;6.494;2022-09-09T09:55:29;21.00;99.90
2757;DHT22;1386;50.862;6.494;2022-09-09T09:58:02;20.90;99.90
2757;DHT22;1386;50.862;6.494;2022-09-09T10:00:30;20.90;99.90
2757;DHT22;1386;50.862;6.494;2022-09-09T10:02:59;20.80;99.90
2757;DHT22;1386;50.862;6.494;2022-09-09T10:05:28;20.90;99.90
2757;DHT22;1386;50.862;6.494;2022-09-09T10:08:03;21.30;99.90
2757;DHT22;1386;50.862;6.494;2022-09-09T10:10:48;21.40;99.90
2757;DHT22;1386;50.862;6.494;2022-09-09T10:13:22;21.20;99.90
2757;DHT22;1386;50.862;6.494;2022-09-09T10:16:02;21.30;99.90
2757;DHT22;1386;50.862;6.494;2022-09-09T10:18:41;21.30;99.90
2757;DHT22;1386;50.862;6.494;2022-09-09T10:21:23;21.30;99.90
2757;DHT22;1386;50.862;6.494;2022-09-09T10:24:11;21.40;99.90
2757;DHT22;1386;50.862;6.494;2022-09-09T10:26:47;21.30;99.90
2757;DHT22;1386;50.862;6.494;2022-09-09T10:29:37;21.30;99.90
2757;DHT22;1386;50.862;6.494;2022-09-09T10:32:28;21.30;99.90
2757;DHT22;1386;50.862;6.494;2022-09-09T10:35:04;21.20;99.90
2757;DHT22;1386;50.862;6.494;2022-09-09T10:37:44;21.20;99.90
2757;DHT22;1386;50.862;6.494;2022-09-09T10:40:22;21.10;99.90
2757;DHT22;1386;50.862;6.494;2022-09-09T10:42:52;21.10;99.90
2757;DHT22;1386;50.862;6.494;2022-09-09T10:45:30;21.10;99.90
2757;DHT22;1386;50.862;6.494;2022-09-09T10:48:16;21.00;99.90
2757;DHT22;1386;50.862;6.494;2022-09-09T10:50:52;20.90;99.90
2757;DHT22;1386;50.862;6.494;2022-09-09T10:53:28;20.90;99.90
2757;DHT22;1386;50.862;6.494;2022-09-09T10:56:03;20.90;99.90
2757;DHT22;1386;50.862;6.494;2022-09-09T10:58:36;21.00;99.90
2757;DHT22;1386;50.862;6.494;2022-09-09T11:01:13;21.00;99.90
2757;DHT22;1386;50.862;6.494;2022-09-09T11:03:43;21.10;99.90
2757;DHT22;1386;50.862;6.494;2022-09-09T11:06:16;21.10;99.90
2757;DHT22;1386;50.862;6.494;2022-09-09T11:08:45;21.10;99.90
2757;DHT22;1386;50.862;6.494;2022-09-09T11:11:17;21.10;99.90
2757;DHT22;1386;50.862;6.494;2022-09-09T11:13:48;21.10;99.90
2757;DHT22;1386;50.862;6.494;2022-09-09T11:16:24;21.10;99.90
2757;DHT22;1386;50.862;6.494;2022-09-09T11:18:58;21.10;99.90
2757;DHT22;1386;50.862;6.494;2022-09-09T11:21:29;21.10;99.90
2757;DHT22;1386;50.862;6.494;2022-09-09T11:24:00;21.10;99.90
2757;DHT22;1386;50.862;6.494;2022-09-09T11:26:32;20.90;99.90
2757;DHT22;1386;50.862;6.494;2022-09-09T11:29:33;21.00;99.90
2757;DHT22;1386;50.862;6.494;2022-09-09T11:32:18;21.10;99.90
2757;DHT22;1386;50.862;6.494;2022-09-09T11:34:54;21.10;99.90
2757;DHT22;1386;50.862;6.494;2022-09-09T11:37:42;21.10;99.90
2757;DHT22;1386;50.862;6.494;2022-09-09T11:40:22;21.00;99.90
2757;DHT22;1386;50.862;6.494;2022-09-09T11:43:02;21.00;99.90
2757;DHT22;1386;50.862;6.494;2022-09-09T11:45:30;21.00;99.90
2757;DHT22;1386;50.862;6.494;2022-09-09T11:48:02;21.00;99.90
2757;DHT22;1386;50.862;6.494;2022-09-09T11:50:35;21.00;99.90
2757;DHT22;1386;50.862;6.494;2022-09-09T11:53:22;21.00;99.90
2757;DHT22;1386;50.862;6.494;2022-09-09T11:56:08;21.10;99.90
2757;DHT22;1386;50.862;6.494;2022-09-09T11:58:42;21.10;99.90
2757;DHT22;1386;50.862;6.494;2022-09-09T12:04:34;21.00;99.90
2757;DHT22;1386;50.862;6.494;2022-09-09T12:07:05;20.90;99.90
2757;DHT22;1386;50.862;6.494;2022-09-09T12:09:51;20.60;99.90
2757;DHT22;1386;50.862;6.494;2022-09-09T12:12:28;20.50;99.90
2757;DHT22;1386;50.862;6.494;2022-09-09T12:15:01;20.30;99.90
2757;DHT22;1386;50.862;6.494;2022-09-09T12:17:29;20.20;99.90
2757;DHT22;1386;50.862;6.494;2022-09-09T12:20:04;20.30;99.90
2757;DHT22;1386;50.862;6.494;2022-09-09T12:22:40;20.30;99.90
2757;DHT22;1386;50.862;6.494;2022-09-09T12:25:53;20.40;99.90
2757;DHT22;1386;50.862;6.494;2022-09-09T13:18:18;21.20;99.90
2757;DHT22;1386;50.862;6.494;2022-09-09T13:20:54;21.20;99.90
2757;DHT22;1386;50.862;6.494;2022-09-09T13:29:31;21.20;99.90
2757;DHT22;1386;50.862;6.494;2022-09-09T13:32:26;21.30;99.90
2757;DHT22;1386;50.862;6.494;2022-09-09T13:34:56;21.40;99.90
2757;DHT22;1386;50.862;6.494;2022-09-09T13:37:27;21.40;99.90
2757;DHT22;1386;50.862;6.494;2022-09-09T13:39:56;21.40;99.90
2757;DHT22;1386;50.862;6.494;2022-09-09T13:42:28;21.30;99.90
2757;DHT22;1386;50.862;6.494;2022-09-09T13:45:17;21.30;99.90
2757;DHT22;1386;50.862;6.494;2022-09-09T13:47:55;21.30;99.90
2757;DHT22;1386;50.862;6.494;2022-09-09T13:50:28;21.30;99.90
2757;DHT22;1386;50.862;6.494;2022-09-09T13:52:59;21.20;99.90
2757;DHT22;1386;50.862;6.494;2022-09-09T13:55:28;21.10;99.90
2757;DHT22;1386;50.862;6.494;2022-09-09T13:57:56;21.10;99.90
2757;DHT22;1386;50.862;6.494;2022-09-09T14:00:24;20.90;99.90
2757;DHT22;1386;50.862;6.494;2022-09-09T14:02:51;20.90;99.90
2757;DHT22;1386;50.862;6.494;2022-09-09T14:05:20;20.80;99.90
2757;DHT22;1386;50.862;6.494;2022-09-09T14:07:50;20.60;99.90
2757;DHT22;1386;50.862;6.494;2022-09-09T14:10:17;20.50;99.90
2757;DHT22;1386;50.862;6.494;2022-09-09T14:12:44;20.40;99.90
2757;DHT22;1386;50.862;6.494;2022-09-09T14:15:12;20.30;99.90
2757;DHT22;1386;50.862;6.494;2022-09-09T14:17:39;20.30;99.90
2757;DHT22;1386;50.862;6.494;2022-09-09T14:20:08;20.30;99.90
2757;DHT22;1386;50.862;6.494;2022-09-09T14:22:36;20.30;99.90
2757;DHT22;1386;50.862;6.494;2022-09-09T14:25:07;20.30;99.90
2757;DHT22;1386;50.862;6.494;2022-09-09T14:27:34;20.20;99.90
2757;DHT22;1386;50.862;6.494;2022-09-09T14:30:01;20.20;99.90
2757;DHT22;1386;50.862;6.494;2022-09-09T14:32:28;20.20;99.90
2757;DHT22;1386;50.862;6.494;2022-09-09T14:34:55;20.20;99.90
2757;DHT22;1386;50.862;6.494;2022-09-09T14:37:22;20.40;99.90
2757;DHT22;1386;50.862;6.494;2022-09-09T14:39:49;20.60;99.90
2757;DHT22;1386;50.862;6.494;2022-09-09T14:42:20;20.70;99.90
2757;DHT22;1386;50.862;6.494;2022-09-09T14:44:49;20.70;99.90
2757;DHT22;1386;50.862;6.494;2022-09-09T14:47:20;20.70;99.90
2757;DHT22;1386;50.862;6.494;2022-09-09T14:49:47;20.70;99.90
2757;DHT22;1386;50.862;6.494;2022-09-09T14:52:17;20.60;99.90
2757;DHT22;1386;50.862;6.494;2022-09-09T14:59:48;20.40;99.90
2757;DHT22;1386;50.862;6.494;2022-09-09T15:02:15;20.50;99.90
2757;DHT22;1386;50.862;6.494;2022-09-09T15:04:42;20.50;99.90
2757;DHT22;1386;50.862;6.494;2022-09-09T15:07:09;20.50;99.90
2757;DHT22;1386;50.862;6.494;2022-09-09T15:09:37;20.50;99.90
2757;DHT22;1386;50.862;6.494;2022-09-09T15:12:04;20.40;99.90
2757;DHT22;1386;50.862;6.494;2022-09-09T15:14:31;20.30;99.90
2757;DHT22;1386;50.862;6.494;2022-09-09T15:16:59;20.20;99.90
2757;DHT22;1386;50.862;6.494;2022-09-09T15:23:04;20.20;99.90
2757;DHT22;1386;50.862;6.494;2022-09-09T15:29:06;20.10;99.90
2757;DHT22;1386;50.862;6.494;2022-09-09T19:55:05;17.30;99.90
2757;DHT22;1386;50.862;6.494;2022-09-09T19:57:32;17.20;99.90
2757;DHT22;1386;50.862;6.494;2022-09-09T20:00:00;17.20;99.90
2757;DHT22;1386;50.862;6.494;2022-09-09T20:02:28;17.20;99.90
2757;DHT22;1386;50.862;6.494;2022-09-09T20:04:55;17.20;99.90
2757;DHT22;1386;50.862;6.494;2022-09-09T20:07:23;17.20;99.90
2757;DHT22;1386;50.862;6.494;2022-09-09T20:09:50;17.20;99.90
2757;DHT22;1386;50.862;6.494;2022-09-09T20:12:20;17.20;99.90
2757;DHT22;1386;50.862;6.494;2022-09-09T20:14:47;17.20;99.90
2757;DHT22;1386;50.862;6.494;2022-09-09T20:17:14;17.20;99.90
2757;DHT22;1386;50.862;6.494;2022-09-09T20:19:41;17.10;99.90
2757;DHT22;1386;50.862;6.494;2022-09-09T20:22:08;17.10;99.90
2757;DHT22;1386;50.862;6.494;2022-09-09T20:24:35;17.00;99.90
2757;DHT22;1386;50.862;6.494;2022-09-09T20:27:02;17.10;99.90
2757;DHT22;1386;50.862;6.494;2022-09-09T20:29:32;17.10;99.90
2757;DHT22;1386;50.862;6.494;2022-09-09T20:31:59;17.00;99.90
2757;DHT22;1386;50.862;6.494;2022-09-09T20:34:26;17.00;99.90
2757;DHT22;1386;50.862;6.494;2022-09-09T20:36:54;17.00;99.90
2757;DHT22;1386;50.862;6.494;2022-09-09T20:39:22;17.00;99.90
2757;DHT22;1386;50.862;6.494;2022-09-09T20:41:50;17.00;99.90
2757;DHT22;1386;50.862;6.494;2022-09-09T20:44:18;16.90;99.90
2757;DHT22;1386;50.862;6.494;2022-09-09T20:46:49;16.90;99.90
2757;DHT22;1386;50.862;6.494;2022-09-09T20:49:18;16.90;99.90
2757;DHT22;1386;50.862;6.494;2022-09-09T20:51:47;16.90;99.90
